Time;durP1;ratioP1;P1;durP2;ratioP2;P2;SDS_P1;SDS_P2;PMS_P1;PMS_P2;Temp;Humidity;BMP_temperature;BMP_pressure;BME280_temperature;BME280_humidity;BME280_pressure;Samples;Min_cycle;Max_cycle;Signal;HPM_P1;HPM_P2
2022/04/12 00:00:27;;;;;;;6.85;4.18;;;;;;;;;;5089346;28;20440;-82
2022/04/12 00:02:53;;;;;;;6.18;4.18;;;;;;;;;;5091929;28;20491;-83
2022/04/12 00:05:19;;;;;;;6.13;3.88;;;;;;;;;;5092120;28;20923;-82
2022/04/12 00:07:47;;;;;;;5.30;3.80;;;;;;;;;;5090313;28;20541;-82
2022/04/12 00:10:13;;;;;;;7.32;4.53;;;;;;;;;;5092165;28;20446;-81
2022/04/12 00:12:40;;;;;;;6.63;4.25;;;;;;;;;;5091666;28;20471;-83
2022/04/12 00:15:07;;;;;;;4.07;3.67;;;;;;;;;;5091031;28;20430;-83
2022/04/12 00:20:18;;;;;;;5.40;3.80;;;;;;;;;;5086657;28;20924;-82
2022/04/12 00:22:44;;;;;;;5.40;3.67;;;;;;;;;;5092929;28;20431;-82
2022/04/12 00:25:12;;;;;;;5.20;3.70;;;;;;;;;;5088828;28;20481;-83
2022/04/12 00:27:38;;;;;;;6.60;4.22;;;;;;;;;;5089308;28;20490;-82
2022/04/12 00:30:06;;;;;;;8.50;4.57;;;;;;;;;;5086274;28;20436;-82
2022/04/12 00:32:32;;;;;;;7.50;3.60;;;;;;;;;;5097058;28;20481;-83
2022/04/12 00:34:58;;;;;;;6.55;4.40;;;;;;;;;;5089488;28;20418;-83
2022/04/12 00:37:24;;;;;;;4.88;3.28;;;;;;;;;;5094096;28;20867;-84
2022/04/12 00:39:51;;;;;;;5.22;3.50;;;;;;;;;;5090341;28;20402;-83
2022/04/12 00:42:18;;;;;;;7.80;4.10;;;;;;;;;;5098503;28;20427;-82
2022/04/12 00:44:44;;;;;;;7.68;4.20;;;;;;;;;;5098481;28;20467;-80
2022/04/12 00:47:10;;;;;;;5.47;3.50;;;;;;;;;;5094934;28;20495;-82
2022/04/12 00:49:37;;;;;;;6.57;4.43;;;;;;;;;;5094808;28;20430;-82
2022/04/12 00:52:04;;;;;;;5.20;3.60;;;;;;;;;;5088651;28;20422;-82
2022/04/12 00:54:31;;;;;;;6.68;4.30;;;;;;;;;;5089009;28;21084;-84
2022/04/12 00:56:58;;;;;;;5.90;3.70;;;;;;;;;;5091035;28;20461;-83
2022/04/12 00:59:25;;;;;;;4.65;4.00;;;;;;;;;;5100805;28;20412;-83
2022/04/12 01:01:52;;;;;;;4.93;3.67;;;;;;;;;;5089577;28;20424;-82
2022/04/12 01:04:19;;;;;;;5.33;4.00;;;;;;;;;;5085994;28;20949;-82
2022/04/12 01:06:46;;;;;;;7.95;3.75;;;;;;;;;;5089193;28;20428;-82
2022/04/12 01:09:12;;;;;;;6.13;3.60;;;;;;;;;;5087867;28;20423;-82
2022/04/12 01:11:39;;;;;;;5.75;3.60;;;;;;;;;;5087019;28;20422;-83
2022/04/12 01:14:06;;;;;;;5.22;4.50;;;;;;;;;;5091042;28;20422;-83
2022/04/12 01:16:34;;;;;;;7.43;4.10;;;;;;;;;;5086611;28;20913;-82
2022/04/12 01:19:00;;;;;;;7.38;4.90;;;;;;;;;;5083953;28;20431;-83
2022/04/12 01:21:29;;;;;;;4.80;3.80;;;;;;;;;;5087619;28;20417;-82
2022/04/12 01:23:59;;;;;;;8.00;4.30;;;;;;;;;;5087867;28;20475;-83
2022/04/12 01:26:26;;;;;;;6.50;4.00;;;;;;;;;;5086578;28;20421;-81
2022/04/12 01:28:52;;;;;;;5.90;4.07;;;;;;;;;;5086139;28;20438;-82
2022/04/12 01:31:18;;;;;;;5.88;3.85;;;;;;;;;;5083969;28;20417;-83
2022/04/12 01:33:45;;;;;;;8.32;4.22;;;;;;;;;;5085925;28;20415;-82
2022/04/12 01:36:11;;;;;;;5.57;4.00;;;;;;;;;;5083504;28;20446;-83
2022/04/12 01:38:37;;;;;;;7.50;4.30;;;;;;;;;;5086633;28;20483;-82
2022/04/12 01:41:05;;;;;;;4.90;4.00;;;;;;;;;;5086988;28;20448;-83
2022/04/12 01:43:31;;;;;;;5.15;4.00;;;;;;;;;;5085235;28;20437;-83
2022/04/12 01:45:57;;;;;;;5.40;4.10;;;;;;;;;;5088758;28;20423;-83
2022/04/12 01:48:25;;;;;;;6.70;4.50;;;;;;;;;;5088980;28;20426;-82
2022/04/12 01:50:51;;;;;;;5.20;4.20;;;;;;;;;;5087477;28;20456;-82
2022/04/12 01:53:17;;;;;;;6.20;4.05;;;;;;;;;;5089718;28;21131;-83
2022/04/12 01:55:44;;;;;;;6.65;4.00;;;;;;;;;;5083835;28;20475;-83
2022/04/12 01:58:11;;;;;;;6.28;4.50;;;;;;;;;;5088212;28;20426;-82
2022/04/12 02:00:38;;;;;;;7.25;4.43;;;;;;;;;;5088074;28;20470;-82
2022/04/12 02:03:04;;;;;;;5.05;4.28;;;;;;;;;;5087873;28;20464;-83
2022/04/12 02:05:30;;;;;;;5.63;4.30;;;;;;;;;;5091758;28;20479;-83
2022/04/12 02:07:57;;;;;;;7.60;4.80;;;;;;;;;;5086684;28;20423;-82
2022/04/12 02:10:23;;;;;;;6.20;4.60;;;;;;;;;;5082405;28;20463;-83
2022/04/12 02:12:49;;;;;;;6.15;4.72;;;;;;;;;;5083608;28;20428;-83
2022/04/12 02:15:17;;;;;;;9.52;5.00;;;;;;;;;;5088187;28;20427;-83
2022/04/12 02:17:44;;;;;;;6.38;4.85;;;;;;;;;;5086722;28;20455;-82
2022/04/12 02:20:10;;;;;;;9.88;4.60;;;;;;;;;;5088246;28;20988;-83
2022/04/12 02:22:37;;;;;;;6.60;4.93;;;;;;;;;;5081522;28;20488;-81
2022/04/12 02:25:03;;;;;;;6.88;4.55;;;;;;;;;;5088529;28;20418;-83
2022/04/12 02:27:30;;;;;;;6.63;4.57;;;;;;;;;;5091682;28;20795;-82
2022/04/12 02:29:56;;;;;;;9.30;5.33;;;;;;;;;;5087522;28;20411;-82
2022/04/12 02:32:24;;;;;;;6.13;4.80;;;;;;;;;;5087661;28;20429;-82
2022/04/12 02:34:50;;;;;;;6.68;5.03;;;;;;;;;;5087379;28;20413;-82
2022/04/12 02:37:16;;;;;;;12.73;4.72;;;;;;;;;;5087958;28;20840;-83
2022/04/12 02:39:42;;;;;;;6.88;4.80;;;;;;;;;;5084909;28;20459;-83
2022/04/12 02:42:09;;;;;;;7.60;5.30;;;;;;;;;;5087071;28;20463;-83
2022/04/12 02:44:35;;;;;;;6.97;4.75;;;;;;;;;;5088009;28;20433;-83
2022/04/12 02:47:01;;;;;;;6.78;4.90;;;;;;;;;;5094115;28;20415;-83
2022/04/12 02:49:28;;;;;;;8.93;5.37;;;;;;;;;;5089465;28;20491;-83
2022/04/12 02:51:55;;;;;;;6.97;4.88;;;;;;;;;;5093313;28;20430;-83
2022/04/12 02:54:21;;;;;;;8.65;5.00;;;;;;;;;;5090165;28;20444;-83
2022/04/12 02:56:47;;;;;;;8.25;5.20;;;;;;;;;;5092658;28;20479;-82
2022/04/12 02:59:13;;;;;;;6.20;4.63;;;;;;;;;;5088353;28;20822;-83
2022/04/12 03:01:40;;;;;;;7.25;5.38;;;;;;;;;;5089989;28;20976;-83
2022/04/12 03:04:06;;;;;;;9.18;5.65;;;;;;;;;;5088777;28;20778;-83
2022/04/12 03:06:33;;;;;;;9.00;5.80;;;;;;;;;;5090727;28;20485;-82
2022/04/12 03:09:00;;;;;;;7.80;5.15;;;;;;;;;;5089701;28;20905;-84
2022/04/12 03:11:26;;;;;;;8.45;5.88;;;;;;;;;;5086368;28;20423;-84
2022/04/12 03:13:52;;;;;;;7.75;4.93;;;;;;;;;;5092287;28;20479;-83
2022/04/12 03:16:18;;;;;;;6.57;4.90;;;;;;;;;;5091013;28;20421;-82
2022/04/12 03:18:45;;;;;;;9.67;5.50;;;;;;;;;;5089339;28;20445;-83
2022/04/12 03:21:11;;;;;;;8.05;5.55;;;;;;;;;;5091759;28;20444;-83
2022/04/12 03:23:39;;;;;;;8.00;5.70;;;;;;;;;;5094246;28;20417;-84
2022/04/12 03:26:05;;;;;;;8.13;5.57;;;;;;;;;;5088567;28;20413;-83
2022/04/12 03:28:33;;;;;;;10.27;5.45;;;;;;;;;;5091569;28;20471;-83
2022/04/12 03:30:59;;;;;;;8.95;5.45;;;;;;;;;;5092086;28;20424;-84
2022/04/12 03:33:26;;;;;;;8.55;6.15;;;;;;;;;;5090422;28;20425;-85
2022/04/12 03:35:52;;;;;;;8.45;5.78;;;;;;;;;;5088516;28;20450;-83
2022/04/12 03:38:18;;;;;;;9.40;5.30;;;;;;;;;;5091238;28;20432;-83
2022/04/12 03:40:47;;;;;;;7.05;5.80;;;;;;;;;;5089272;28;20426;-81
2022/04/12 03:43:13;;;;;;;9.88;5.80;;;;;;;;;;5087003;28;20451;-81
2022/04/12 03:45:39;;;;;;;6.85;5.60;;;;;;;;;;5088497;28;20485;-83
2022/04/12 03:48:06;;;;;;;6.40;5.40;;;;;;;;;;5083956;28;20428;-81
2022/04/12 03:50:34;;;;;;;7.82;5.32;;;;;;;;;;5088008;28;20529;-83
2022/04/12 03:53:00;;;;;;;7.38;5.60;;;;;;;;;;5088815;28;20424;-82
2022/04/12 03:55:35;;;;;;;7.28;5.97;;;;;;;;;;5089482;28;20479;-84
2022/04/12 03:58:03;;;;;;;10.10;6.32;;;;;;;;;;5084719;28;20430;-82
2022/04/12 04:00:30;;;;;;;9.57;6.15;;;;;;;;;;5086939;28;20420;-83
2022/04/12 04:02:56;;;;;;;8.00;6.13;;;;;;;;;;5087996;28;20912;-83
2022/04/12 04:05:23;;;;;;;7.67;5.80;;;;;;;;;;5088392;28;20467;-84
2022/04/12 04:07:49;;;;;;;10.32;6.38;;;;;;;;;;5088990;28;20457;-83
2022/04/12 04:10:15;;;;;;;8.40;6.10;;;;;;;;;;5085184;28;20409;-83
2022/04/12 04:12:42;;;;;;;7.40;6.53;;;;;;;;;;5088563;28;20439;-83
2022/04/12 04:15:12;;;;;;;8.55;6.30;;;;;;;;;;5088261;28;20413;-83
2022/04/12 04:17:38;;;;;;;8.95;7.00;;;;;;;;;;5089764;28;20971;-82
2022/04/12 04:20:05;;;;;;;7.70;6.13;;;;;;;;;;5087582;28;20445;-83
2022/04/12 04:22:31;;;;;;;10.40;7.30;;;;;;;;;;5086353;28;20975;-81
2022/04/12 04:24:57;;;;;;;8.23;6.72;;;;;;;;;;5085521;28;20408;-83
2022/04/12 04:27:28;;;;;;;7.28;6.10;;;;;;;;;;5087535;28;20458;-83
2022/04/12 04:29:55;;;;;;;9.52;6.95;;;;;;;;;;5088580;28;20487;-83
2022/04/12 04:32:22;;;;;;;8.25;6.63;;;;;;;;;;5084891;28;20524;-83
2022/04/12 04:34:49;;;;;;;9.25;6.70;;;;;;;;;;5087454;28;20407;-83
2022/04/12 04:37:15;;;;;;;8.80;7.03;;;;;;;;;;5086994;28;20579;-83
2022/04/12 04:39:41;;;;;;;9.15;6.53;;;;;;;;;;5086851;28;20422;-83
2022/04/12 04:42:07;;;;;;;9.40;6.85;;;;;;;;;;5085709;28;20415;-83
2022/04/12 04:44:34;;;;;;;10.82;7.07;;;;;;;;;;5088039;28;20783;-83
2022/04/12 04:47:00;;;;;;;9.48;6.85;;;;;;;;;;5086922;28;20433;-83
2022/04/12 04:49:27;;;;;;;10.65;6.88;;;;;;;;;;5088905;28;20485;-83
2022/04/12 04:51:54;;;;;;;9.70;6.78;;;;;;;;;;5086218;28;20521;-83
2022/04/12 04:54:20;;;;;;;8.20;7.20;;;;;;;;;;5087915;28;20414;-83
2022/04/12 04:56:46;;;;;;;9.93;6.67;;;;;;;;;;5085594;28;20990;-81
2022/04/12 04:59:13;;;;;;;8.45;6.78;;;;;;;;;;5085842;28;20424;-82
2022/04/12 05:01:39;;;;;;;8.43;6.93;;;;;;;;;;5084709;28;20481;-82
2022/04/12 05:04:05;;;;;;;9.27;7.28;;;;;;;;;;5082969;28;20426;-83
2022/04/12 05:06:33;;;;;;;10.30;7.40;;;;;;;;;;5085308;28;20433;-82
2022/04/12 05:08:59;;;;;;;10.93;7.40;;;;;;;;;;5083612;28;20940;-81
2022/04/12 05:11:25;;;;;;;8.75;7.18;;;;;;;;;;5085464;28;20419;-82
2022/04/12 05:13:51;;;;;;;10.05;7.50;;;;;;;;;;5084882;28;20523;-82
2022/04/12 05:16:17;;;;;;;14.52;7.38;;;;;;;;;;5082895;28;20422;-82
2022/04/12 05:18:44;;;;;;;9.15;7.13;;;;;;;;;;5085183;28;20425;-82
2022/04/12 05:21:10;;;;;;;11.27;7.45;;;;;;;;;;5082604;28;20426;-82
2022/04/12 05:23:38;;;;;;;9.45;7.50;;;;;;;;;;5086264;28;20426;-82
2022/04/12 05:26:04;;;;;;;11.98;7.72;;;;;;;;;;5083905;28;20920;-81
2022/04/12 05:28:30;;;;;;;10.77;7.27;;;;;;;;;;5085747;28;20424;-82
2022/04/12 05:30:56;;;;;;;10.90;6.97;;;;;;;;;;5082768;28;20461;-82
2022/04/12 05:33:23;;;;;;;10.32;7.00;;;;;;;;;;5084598;28;20431;-82
2022/04/12 05:35:49;;;;;;;11.27;7.80;;;;;;;;;;5087320;28;20483;-82
2022/04/12 05:38:15;;;;;;;9.57;7.65;;;;;;;;;;5080998;28;20465;-82
2022/04/12 05:40:43;;;;;;;10.10;7.40;;;;;;;;;;5084575;28;20412;-82
2022/04/12 05:43:09;;;;;;;10.70;7.80;;;;;;;;;;5086934;28;20438;-82
2022/04/12 05:45:35;;;;;;;8.98;7.22;;;;;;;;;;5082564;28;20905;-81
2022/04/12 05:48:02;;;;;;;9.27;7.35;;;;;;;;;;5084135;28;20438;-82
2022/04/12 05:50:28;;;;;;;10.15;7.32;;;;;;;;;;5086998;28;20534;-82
2022/04/12 05:52:55;;;;;;;11.35;7.53;;;;;;;;;;5084914;28;20832;-80
2022/04/12 05:55:22;;;;;;;13.82;7.18;;;;;;;;;;5089459;28;20450;-82
2022/04/12 05:57:51;;;;;;;9.27;7.53;;;;;;;;;;5086118;28;20455;-82
2022/04/12 06:00:18;;;;;;;7.68;6.85;;;;;;;;;;5085525;28;20499;-82
2022/04/12 06:02:44;;;;;;;7.88;7.07;;;;;;;;;;5080469;28;20459;-80
2022/04/12 06:05:13;;;;;;;9.00;6.43;;;;;;;;;;5086802;28;20414;-82
2022/04/12 06:07:40;;;;;;;15.13;8.18;;;;;;;;;;5083507;28;20476;-82
2022/04/12 06:10:06;;;;;;;11.57;6.93;;;;;;;;;;5085382;28;20410;-82
2022/04/12 06:12:32;;;;;;;10.07;7.60;;;;;;;;;;5083007;28;20836;-82
2022/04/12 06:15:00;;;;;;;10.02;7.70;;;;;;;;;;5082859;28;20483;-82
2022/04/12 06:17:29;;;;;;;9.38;7.22;;;;;;;;;;5087399;28;20418;-82
2022/04/12 06:19:59;;;;;;;13.45;7.70;;;;;;;;;;5081429;28;20408;-82
2022/04/12 06:22:25;;;;;;;8.18;6.63;;;;;;;;;;5087403;28;20444;-82
2022/04/12 06:24:51;;;;;;;9.70;6.80;;;;;;;;;;5086798;28;20441;-82
2022/04/12 06:27:17;;;;;;;11.05;7.28;;;;;;;;;;5083432;28;20461;-82
2022/04/12 06:29:44;;;;;;;9.52;7.30;;;;;;;;;;5082812;28;20418;-81
2022/04/12 06:32:11;;;;;;;8.23;6.80;;;;;;;;;;5087323;28;20410;-82
2022/04/12 06:34:37;;;;;;;10.97;7.57;;;;;;;;;;5081883;28;20409;-82
2022/04/12 06:37:04;;;;;;;9.85;7.50;;;;;;;;;;5091452;28;20677;-80
2022/04/12 06:39:30;;;;;;;11.98;7.20;;;;;;;;;;5084529;28;20407;-82
2022/04/12 06:41:56;;;;;;;9.35;7.10;;;;;;;;;;5088056;28;20462;-82
2022/04/12 06:44:23;;;;;;;8.40;6.70;;;;;;;;;;5085431;28;20855;-82
2022/04/12 06:46:49;;;;;;;7.82;6.80;;;;;;;;;;5085500;28;20825;-82
2022/04/12 06:49:16;;;;;;;9.10;7.38;;;;;;;;;;5088255;28;20480;-82
2022/04/12 06:51:43;;;;;;;9.13;6.88;;;;;;;;;;5088955;28;20435;-82
2022/04/12 06:54:09;;;;;;;9.80;7.10;;;;;;;;;;5084296;28;20482;-82
2022/04/12 06:56:35;;;;;;;7.60;6.80;;;;;;;;;;5084439;28;20484;-83
2022/04/12 06:59:01;;;;;;;10.20;7.35;;;;;;;;;;5088493;28;20411;-82
2022/04/12 07:01:28;;;;;;;9.00;7.20;;;;;;;;;;5088196;28;20437;-82
2022/04/12 07:03:54;;;;;;;10.45;7.10;;;;;;;;;;5084210;28;20439;-83
2022/04/12 07:06:21;;;;;;;9.32;7.10;;;;;;;;;;5081368;28;20417;-82
2022/04/12 07:08:47;;;;;;;8.85;6.72;;;;;;;;;;5082843;28;20419;-83
2022/04/12 07:11:14;;;;;;;10.13;6.90;;;;;;;;;;5087633;28;20433;-83
2022/04/12 07:13:40;;;;;;;8.90;6.72;;;;;;;;;;5084783;28;20412;-83
2022/04/12 07:16:06;;;;;;;8.07;6.60;;;;;;;;;;5083067;28;20475;-83
2022/04/12 07:18:32;;;;;;;9.10;6.13;;;;;;;;;;5084255;28;20430;-82
2022/04/12 07:20:59;;;;;;;8.75;6.53;;;;;;;;;;5078979;28;20477;-82
2022/04/12 07:23:26;;;;;;;9.32;6.88;;;;;;;;;;5084465;28;20486;-83
2022/04/12 07:25:52;;;;;;;7.63;6.30;;;;;;;;;;5080072;28;20410;-83
2022/04/12 07:28:19;;;;;;;7.50;6.30;;;;;;;;;;5082179;28;20507;-83
2022/04/12 07:30:45;;;;;;;9.20;7.10;;;;;;;;;;5084419;28;20428;-82
2022/04/12 07:33:11;;;;;;;10.90;6.85;;;;;;;;;;5090920;28;20479;-80
2022/04/12 07:35:37;;;;;;;8.90;6.93;;;;;;;;;;5086673;28;20915;-83
2022/04/12 07:38:04;;;;;;;8.60;6.20;;;;;;;;;;5084630;28;20496;-80
2022/04/12 07:40:31;;;;;;;10.95;6.50;;;;;;;;;;5085673;28;20978;-82
2022/04/12 07:42:58;;;;;;;7.22;6.53;;;;;;;;;;5086214;28;20430;-81
2022/04/12 07:45:24;;;;;;;11.27;7.18;;;;;;;;;;5090048;28;20448;-82
2022/04/12 07:47:50;;;;;;;8.50;6.85;;;;;;;;;;5087280;28;20484;-82
2022/04/12 07:50:16;;;;;;;8.75;7.35;;;;;;;;;;5083768;28;20471;-82
2022/04/12 07:52:42;;;;;;;9.27;6.90;;;;;;;;;;5088478;28;20421;-83
2022/04/12 07:55:09;;;;;;;8.98;5.95;;;;;;;;;;5086899;28;20422;-83
2022/04/12 07:57:36;;;;;;;8.93;6.70;;;;;;;;;;5088479;28;20410;-82
2022/04/12 08:00:03;;;;;;;7.40;6.60;;;;;;;;;;5084333;28;20425;-83
2022/04/12 08:02:29;;;;;;;8.43;7.53;;;;;;;;;;5087731;28;20441;-81
2022/04/12 08:04:56;;;;;;;7.60;6.30;;;;;;;;;;5087957;28;20821;-83
2022/04/12 08:07:22;;;;;;;9.80;7.05;;;;;;;;;;5088608;28;20417;-83
2022/04/12 08:09:48;;;;;;;8.60;6.68;;;;;;;;;;5084884;28;20412;-83
2022/04/12 08:12:14;;;;;;;7.50;6.30;;;;;;;;;;5087135;28;21002;-82
2022/04/12 08:14:42;;;;;;;7.00;6.18;;;;;;;;;;5089259;28;20476;-82
2022/04/12 08:17:08;;;;;;;8.45;6.65;;;;;;;;;;5088704;28;20471;-83
2022/04/12 08:19:34;;;;;;;8.43;6.30;;;;;;;;;;5087644;28;20456;-82
2022/04/12 08:22:01;;;;;;;7.20;6.22;;;;;;;;;;5088099;28;20413;-83
2022/04/12 08:24:27;;;;;;;11.53;6.70;;;;;;;;;;5091738;28;20465;-83
2022/04/12 08:26:54;;;;;;;9.63;6.95;;;;;;;;;;5089393;28;20418;-83
2022/04/12 08:29:20;;;;;;;8.77;7.07;;;;;;;;;;5088502;28;22061;-83
2022/04/12 08:31:47;;;;;;;7.35;6.20;;;;;;;;;;5088963;28;20427;-82
2022/04/12 08:34:14;;;;;;;7.97;6.63;;;;;;;;;;5084430;28;20901;-83
2022/04/12 08:36:40;;;;;;;9.13;6.95;;;;;;;;;;5081262;28;20926;-83
2022/04/12 08:39:06;;;;;;;9.00;6.73;;;;;;;;;;5082094;28;20484;-83
2022/04/12 08:41:33;;;;;;;9.63;7.40;;;;;;;;;;5085129;28;20418;-83
2022/04/12 08:44:00;;;;;;;12.30;7.93;;;;;;;;;;5085849;28;20455;-84
2022/04/12 08:46:27;;;;;;;10.20;7.90;;;;;;;;;;5084880;28;20419;-83
2022/04/12 08:48:55;;;;;;;12.23;8.25;;;;;;;;;;5086086;28;20494;-83
2022/04/12 08:51:22;;;;;;;9.80;8.80;;;;;;;;;;5084278;28;20838;-82
2022/04/12 08:53:49;;;;;;;12.50;11.20;;;;;;;;;;5092677;28;20406;-82
2022/04/12 08:56:15;;;;;;;12.77;11.52;;;;;;;;;;5083767;28;20925;-81
2022/04/12 08:58:41;;;;;;;14.70;13.20;;;;;;;;;;5085084;28;20888;-83
2022/04/12 09:01:08;;;;;;;14.07;12.68;;;;;;;;;;5081827;28;20924;-83
2022/04/12 09:03:34;;;;;;;12.40;11.10;;;;;;;;;;5084677;28;20443;-83
2022/04/12 09:06:02;;;;;;;11.88;10.60;;;;;;;;;;5082349;28;20414;-83
2022/04/12 09:08:28;;;;;;;11.50;9.15;;;;;;;;;;5082414;28;20484;-83
2022/04/12 09:10:59;;;;;;;12.00;9.20;;;;;;;;;;5085619;28;20606;-84
2022/04/12 09:13:26;;;;;;;12.20;8.98;;;;;;;;;;5083001;28;20489;-84
2022/04/12 09:15:52;;;;;;;9.60;8.20;;;;;;;;;;5085382;28;20415;-83
2022/04/12 09:18:31;;;;;;;9.17;8.17;;;;;;;;;;5081010;28;20893;-83
2022/04/12 09:21:09;;;;;;;9.35;7.80;;;;;;;;;;5085187;28;20425;-83
2022/04/12 09:23:36;;;;;;;9.10;7.57;;;;;;;;;;5086094;28;20899;-84
2022/04/12 09:26:03;;;;;;;10.13;7.38;;;;;;;;;;5082454;28;20426;-83
2022/04/12 09:28:38;;;;;;;10.68;7.00;;;;;;;;;;5084698;28;20845;-83
2022/04/12 09:31:10;;;;;;;7.97;6.90;;;;;;;;;;5082129;28;20417;-83
2022/04/12 09:33:37;;;;;;;10.63;7.13;;;;;;;;;;5080082;28;20407;-84
2022/04/12 09:36:04;;;;;;;9.45;6.85;;;;;;;;;;5080689;28;20424;-84
2022/04/12 09:38:31;;;;;;;7.90;6.53;;;;;;;;;;5084473;28;20420;-84
2022/04/12 09:41:11;;;;;;;10.73;6.80;;;;;;;;;;5080739;28;20418;-83
2022/04/12 09:43:40;;;;;;;8.05;6.50;;;;;;;;;;5081680;28;20425;-84
2022/04/12 09:46:07;;;;;;;9.00;7.10;;;;;;;;;;5082742;28;20811;-84
2022/04/12 09:48:34;;;;;;;7.80;6.80;;;;;;;;;;5082413;28;20976;-83
2022/04/12 09:51:01;;;;;;;10.93;7.50;;;;;;;;;;5083807;28;20422;-84
2022/04/12 09:53:37;;;;;;;8.18;7.07;;;;;;;;;;5087546;28;20984;-83
2022/04/12 09:56:14;;;;;;;10.40;7.60;;;;;;;;;;5083590;28;20416;-84
2022/04/12 09:58:41;;;;;;;9.48;7.03;;;;;;;;;;5083223;28;21312;-84
2022/04/12 10:01:09;;;;;;;8.18;6.88;;;;;;;;;;5081956;28;20413;-85
2022/04/12 10:03:35;;;;;;;9.95;7.30;;;;;;;;;;5082373;28;20419;-84
2022/04/12 10:06:03;;;;;;;9.60;7.18;;;;;;;;;;5083906;28;20452;-84
2022/04/12 10:08:31;;;;;;;9.32;6.55;;;;;;;;;;5086091;28;20468;-84
2022/04/12 10:10:57;;;;;;;11.20;7.22;;;;;;;;;;5084821;28;20497;-83
2022/04/12 10:13:25;;;;;;;14.60;7.72;;;;;;;;;;5086743;28;20530;-83
2022/04/12 10:15:54;;;;;;;10.50;7.15;;;;;;;;;;5082424;28;21225;-84
2022/04/12 10:18:20;;;;;;;10.50;7.40;;;;;;;;;;5084345;28;20471;-83
2022/04/12 10:20:46;;;;;;;8.82;6.82;;;;;;;;;;5085564;28;20406;-84
2022/04/12 10:23:13;;;;;;;13.10;7.05;;;;;;;;;;5081626;28;20822;-84
2022/04/12 10:25:40;;;;;;;10.13;7.68;;;;;;;;;;5084152;28;20412;-84
2022/04/12 10:28:07;;;;;;;10.53;7.10;;;;;;;;;;5083293;28;21121;-82
2022/04/12 10:30:34;;;;;;;11.10;7.30;;;;;;;;;;5081120;28;20832;-84
2022/04/12 10:33:01;;;;;;;9.32;7.07;;;;;;;;;;5080945;28;21039;-83
2022/04/12 10:35:28;;;;;;;8.35;6.60;;;;;;;;;;5079956;28;20412;-82
2022/04/12 10:37:56;;;;;;;10.77;7.10;;;;;;;;;;5083936;28;20433;-84
2022/04/12 10:40:23;;;;;;;7.55;5.75;;;;;;;;;;5082154;28;20467;-84
2022/04/12 10:42:50;;;;;;;11.48;6.90;;;;;;;;;;5084416;28;20431;-84
2022/04/12 10:45:16;;;;;;;8.93;6.10;;;;;;;;;;5083519;28;20422;-82
2022/04/12 10:47:44;;;;;;;9.88;6.47;;;;;;;;;;5084826;28;20410;-84
2022/04/12 10:50:12;;;;;;;11.48;6.85;;;;;;;;;;5082745;28;20418;-84
2022/04/12 10:52:45;;;;;;;10.52;5.97;;;;;;;;;;5084139;28;20497;-84
2022/04/12 10:55:13;;;;;;;8.43;6.87;;;;;;;;;;5082048;28;20828;-84
2022/04/12 10:57:39;;;;;;;9.82;6.60;;;;;;;;;;5080997;28;20778;-84
2022/04/12 11:00:10;;;;;;;9.93;6.75;;;;;;;;;;5083860;28;20469;-83
2022/04/12 11:02:38;;;;;;;7.85;6.63;;;;;;;;;;5081223;28;20419;-83
2022/04/12 11:05:06;;;;;;;8.05;6.50;;;;;;;;;;5085134;28;20418;-84
2022/04/12 11:07:34;;;;;;;9.57;6.47;;;;;;;;;;5091288;28;20416;-84
2022/04/12 11:10:19;;;;;;;9.60;6.75;;;;;;;;;;5089726;28;20421;-84
2022/04/12 11:12:45;;;;;;;9.95;6.78;;;;;;;;;;5084962;28;20916;-83
2022/04/12 11:15:22;;;;;;;7.60;5.97;;;;;;;;;;5088803;28;20416;-84
2022/04/12 11:17:48;;;;;;;8.90;7.00;;;;;;;;;;5088062;28;20415;-85
2022/04/12 11:20:22;;;;;;;7.30;6.38;;;;;;;;;;5085277;28;21010;-84
2022/04/12 11:22:56;;;;;;;7.25;6.40;;;;;;;;;;5087838;28;20417;-84
2022/04/12 11:25:22;;;;;;;11.43;6.80;;;;;;;;;;5087179;28;20408;-86
2022/04/12 11:27:55;;;;;;;10.20;6.70;;;;;;;;;;5086259;28;20423;-85
2022/04/12 11:30:21;;;;;;;8.77;6.68;;;;;;;;;;5084299;28;20488;-83
2022/04/12 11:32:48;;;;;;;9.75;7.88;;;;;;;;;;5086576;28;20463;-84
2022/04/12 11:35:14;;;;;;;8.73;7.30;;;;;;;;;;5084613;28;20463;-84
2022/04/12 11:37:42;;;;;;;10.17;7.07;;;;;;;;;;5083574;28;20430;-83
2022/04/12 11:40:09;;;;;;;10.07;7.28;;;;;;;;;;5086607;28;20427;-84
2022/04/12 11:42:35;;;;;;;9.95;7.88;;;;;;;;;;5086016;28;20427;-84
2022/04/12 11:45:01;;;;;;;9.15;6.90;;;;;;;;;;5083002;28;20434;-83
2022/04/12 11:47:28;;;;;;;9.38;7.50;;;;;;;;;;5085600;28;20427;-83
2022/04/12 11:49:54;;;;;;;12.45;8.15;;;;;;;;;;5084653;28;20430;-84
2022/04/12 11:52:20;;;;;;;10.55;7.60;;;;;;;;;;5087012;28;20408;-84
2022/04/12 11:54:48;;;;;;;12.10;7.78;;;;;;;;;;5086667;28;20410;-83
2022/04/12 11:57:15;;;;;;;8.82;7.32;;;;;;;;;;5083528;28;20917;-85
2022/04/12 11:59:46;;;;;;;10.77;7.78;;;;;;;;;;5085636;28;20456;-85
2022/04/12 12:02:13;;;;;;;11.35;8.02;;;;;;;;;;5086461;28;20772;-83
2022/04/12 12:04:45;;;;;;;9.57;8.17;;;;;;;;;;5085404;28;20412;-84
2022/04/12 12:07:11;;;;;;;9.50;8.50;;;;;;;;;;5086381;28;20431;-84
2022/04/12 12:09:38;;;;;;;9.90;7.97;;;;;;;;;;5083110;28;20438;-84
2022/04/12 12:12:07;;;;;;;11.77;8.60;;;;;;;;;;5083920;28;20512;-85
2022/04/12 12:14:33;;;;;;;10.60;8.80;;;;;;;;;;5083838;28;20904;-83
2022/04/12 12:17:01;;;;;;;12.85;9.15;;;;;;;;;;5086485;28;20421;-83
2022/04/12 12:19:28;;;;;;;11.95;8.70;;;;;;;;;;5083339;28;20429;-86
2022/04/12 12:21:54;;;;;;;12.20;8.90;;;;;;;;;;5085143;28;20437;-84
2022/04/12 12:24:20;;;;;;;10.70;8.57;;;;;;;;;;5085634;28;20429;-83
2022/04/12 12:26:47;;;;;;;11.25;9.40;;;;;;;;;;5086321;28;20418;-84
2022/04/12 12:29:14;;;;;;;13.43;9.10;;;;;;;;;;5084158;28;20888;-84
2022/04/12 12:31:44;;;;;;;12.15;8.98;;;;;;;;;;5085407;28;20415;-83
2022/04/12 12:34:25;;;;;;;11.40;8.20;;;;;;;;;;5085955;28;20411;-85
2022/04/12 12:36:52;;;;;;;10.95;9.25;;;;;;;;;;5083764;28;20418;-84
2022/04/12 12:39:18;;;;;;;14.15;9.70;;;;;;;;;;5087180;28;20484;-84
2022/04/12 12:41:44;;;;;;;10.35;8.40;;;;;;;;;;5084704;28;20973;-83
2022/04/12 12:44:11;;;;;;;12.45;8.88;;;;;;;;;;5085929;28;20418;-84
2022/04/12 12:46:38;;;;;;;12.90;9.57;;;;;;;;;;5086660;28;20427;-84
2022/04/12 12:49:11;;;;;;;12.40;9.27;;;;;;;;;;5082104;28;20439;-85
2022/04/12 12:51:38;;;;;;;11.80;9.43;;;;;;;;;;5083794;28;20451;-84
2022/04/12 12:54:04;;;;;;;11.88;8.95;;;;;;;;;;5084356;28;20425;-84
2022/04/12 12:56:34;;;;;;;14.25;9.45;;;;;;;;;;5080428;28;20409;-84
2022/04/12 12:59:13;;;;;;;10.88;8.70;;;;;;;;;;5084367;28;20513;-83
2022/04/12 13:01:44;;;;;;;14.10;10.07;;;;;;;;;;5084567;28;20440;-83
2022/04/12 13:04:19;;;;;;;13.65;9.13;;;;;;;;;;5082414;28;20415;-85
2022/04/12 13:06:45;;;;;;;13.45;9.85;;;;;;;;;;5084021;28;20473;-84
2022/04/12 13:09:11;;;;;;;12.32;9.15;;;;;;;;;;5084657;28;20558;-85
2022/04/12 13:11:37;;;;;;;13.48;10.05;;;;;;;;;;5086897;28;20836;-84
2022/04/12 13:14:04;;;;;;;13.65;9.20;;;;;;;;;;5084591;28;20857;-84
2022/04/12 13:16:30;;;;;;;13.10;9.32;;;;;;;;;;5087115;28;20412;-84
2022/04/12 13:19:04;;;;;;;14.45;9.43;;;;;;;;;;5081592;28;20938;-85
2022/04/12 13:21:30;;;;;;;11.60;9.50;;;;;;;;;;5083463;28;20461;-84
2022/04/12 13:23:56;;;;;;;16.73;10.05;;;;;;;;;;5087123;28;20845;-84
2022/04/12 13:26:23;;;;;;;14.02;9.90;;;;;;;;;;5083697;28;20450;-84
2022/04/12 13:28:49;;;;;;;13.05;10.30;;;;;;;;;;5082045;28;20492;-84
2022/04/12 13:31:15;;;;;;;11.07;9.32;;;;;;;;;;5082980;28;20418;-84
2022/04/12 13:33:41;;;;;;;11.75;9.15;;;;;;;;;;5080057;28;20465;-84
2022/04/12 13:36:09;;;;;;;10.82;9.02;;;;;;;;;;5081984;28;20408;-84
2022/04/12 13:38:35;;;;;;;13.50;9.77;;;;;;;;;;5081697;28;20418;-85
2022/04/12 13:41:01;;;;;;;11.70;9.10;;;;;;;;;;5079955;28;20495;-85
2022/04/12 13:43:28;;;;;;;11.68;9.07;;;;;;;;;;5081792;28;20481;-85
2022/04/12 13:45:54;;;;;;;16.43;10.10;;;;;;;;;;5084219;28;20418;-85
2022/04/12 13:48:20;;;;;;;12.63;10.00;;;;;;;;;;5086534;28;20406;-84
2022/04/12 13:50:46;;;;;;;12.37;9.70;;;;;;;;;;5083521;28;20883;-85
2022/04/12 13:53:15;;;;;;;13.17;9.57;;;;;;;;;;5083865;28;20439;-83
2022/04/12 13:55:41;;;;;;;11.43;8.87;;;;;;;;;;5083388;28;20477;-83
2022/04/12 13:58:07;;;;;;;14.48;9.82;;;;;;;;;;5083869;28;20446;-84
2022/04/12 14:00:33;;;;;;;11.10;9.25;;;;;;;;;;5082849;28;20415;-84
2022/04/12 14:03:00;;;;;;;12.70;9.50;;;;;;;;;;5085804;28;20449;-84
2022/04/12 14:05:26;;;;;;;11.23;9.38;;;;;;;;;;5083635;28;20413;-84
2022/04/12 14:07:52;;;;;;;11.25;9.18;;;;;;;;;;5083999;28;20423;-84
2022/04/12 14:10:20;;;;;;;12.10;9.20;;;;;;;;;;5083139;28;20493;-84
2022/04/12 14:12:46;;;;;;;10.97;9.10;;;;;;;;;;5083347;28;20407;-83
2022/04/12 14:15:13;;;;;;;12.10;8.77;;;;;;;;;;5085563;28;20491;-84
2022/04/12 14:17:39;;;;;;;14.25;9.77;;;;;;;;;;5082963;28;20441;-85
2022/04/12 14:20:06;;;;;;;11.95;9.80;;;;;;;;;;5082434;28;20934;-85
2022/04/12 14:22:32;;;;;;;12.20;9.70;;;;;;;;;;5084104;28;20438;-84
2022/04/12 14:25:00;;;;;;;12.35;10.50;;;;;;;;;;5084368;28;20412;-84
2022/04/12 14:27:27;;;;;;;13.18;9.77;;;;;;;;;;5080790;28;20863;-86
2022/04/12 14:29:53;;;;;;;10.50;9.30;;;;;;;;;;5080054;28;20971;-84
2022/04/12 14:32:20;;;;;;;13.35;10.13;;;;;;;;;;5083335;28;20859;-84
2022/04/12 14:34:46;;;;;;;11.02;9.50;;;;;;;;;;5085213;28;20457;-85
2022/04/12 14:37:12;;;;;;;11.77;8.80;;;;;;;;;;5082974;28;20453;-84
2022/04/12 14:39:38;;;;;;;10.90;8.80;;;;;;;;;;5081784;28;20858;-84